sensor_id;sensor_type;location;lat;lon;timestamp;P1;durP1;ratioP1;P2;durP2;ratioP2
75061;SDS011;63641;46.526;24.612;2022-10-15T00:01:19;10.73;;;6.97;;
75061;SDS011;63641;46.526;24.612;2022-10-15T00:03:46;10.90;;;7.18;;
75061;SDS011;63641;46.526;24.612;2022-10-15T00:06:15;8.45;;;7.20;;
75061;SDS011;63641;46.526;24.612;2022-10-15T00:08:44;9.07;;;7.63;;
75061;SDS011;63641;46.526;24.612;2022-10-15T00:11:17;10.25;;;7.43;;
75061;SDS011;63641;46.526;24.612;2022-10-15T00:13:45;9.25;;;7.55;;
75061;SDS011;63641;46.526;24.612;2022-10-15T00:16:13;12.98;;;8.05;;
75061;SDS011;63641;46.526;24.612;2022-10-15T00:18:42;11.65;;;7.30;;
75061;SDS011;63641;46.526;24.612;2022-10-15T00:21:10;9.95;;;7.50;;
75061;SDS011;63641;46.526;24.612;2022-10-15T00:23:39;8.45;;;6.93;;
75061;SDS011;63641;46.526;24.612;2022-10-15T00:26:08;12.05;;;7.38;;
75061;SDS011;63641;46.526;24.612;2022-10-15T00:28:39;9.52;;;7.13;;
75061;SDS011;63641;46.526;24.612;2022-10-15T00:31:11;8.80;;;6.88;;
75061;SDS011;63641;46.526;24.612;2022-10-15T00:33:40;11.20;;;6.80;;
75061;SDS011;63641;46.526;24.612;2022-10-15T00:36:09;11.15;;;7.15;;
75061;SDS011;63641;46.526;24.612;2022-10-15T00:38:38;8.77;;;6.53;;
75061;SDS011;63641;46.526;24.612;2022-10-15T00:41:06;19.38;;;8.70;;
75061;SDS011;63641;46.526;24.612;2022-10-15T00:48:54;8.85;;;7.82;;
75061;SDS011;63641;46.526;24.612;2022-10-15T00:51:25;9.18;;;7.63;;
75061;SDS011;63641;46.526;24.612;2022-10-15T00:53:56;10.25;;;6.88;;
75061;SDS011;63641;46.526;24.612;2022-10-15T00:56:23;10.50;;;6.97;;
75061;SDS011;63641;46.526;24.612;2022-10-15T00:58:53;10.90;;;8.13;;
75061;SDS011;63641;46.526;24.612;2022-10-15T01:01:21;7.88;;;6.93;;
75061;SDS011;63641;46.526;24.612;2022-10-15T01:03:52;9.65;;;6.82;;
75061;SDS011;63641;46.526;24.612;2022-10-15T01:06:21;8.82;;;6.90;;
75061;SDS011;63641;46.526;24.612;2022-10-15T01:08:48;13.27;;;7.68;;
75061;SDS011;63641;46.526;24.612;2022-10-15T01:12:01;9.73;;;6.45;;
75061;SDS011;63641;46.526;24.612;2022-10-15T01:16:45;10.27;;;6.55;;
75061;SDS011;63641;46.526;24.612;2022-10-15T01:31:34;8.05;;;7.22;;
75061;SDS011;63641;46.526;24.612;2022-10-15T01:34:00;8.43;;;7.20;;
75061;SDS011;63641;46.526;24.612;2022-10-15T01:36:38;8.88;;;7.18;;
75061;SDS011;63641;46.526;24.612;2022-10-15T01:42:04;11.25;;;7.13;;
75061;SDS011;63641;46.526;24.612;2022-10-15T01:44:56;9.23;;;6.80;;
75061;SDS011;63641;46.526;24.612;2022-10-15T01:47:32;9.27;;;8.27;;
75061;SDS011;63641;46.526;24.612;2022-10-15T01:50:13;10.75;;;7.28;;
75061;SDS011;63641;46.526;24.612;2022-10-15T01:52:43;8.25;;;6.72;;
75061;SDS011;63641;46.526;24.612;2022-10-15T01:55:11;6.78;;;6.07;;
75061;SDS011;63641;46.526;24.612;2022-10-15T01:57:41;9.32;;;6.75;;
75061;SDS011;63641;46.526;24.612;2022-10-15T02:00:10;9.85;;;7.22;;
75061;SDS011;63641;46.526;24.612;2022-10-15T02:02:37;8.98;;;7.55;;
75061;SDS011;63641;46.526;24.612;2022-10-15T02:05:04;14.05;;;7.88;;
75061;SDS011;63641;46.526;24.612;2022-10-15T02:21:20;9.57;;;7.80;;
75061;SDS011;63641;46.526;24.612;2022-10-15T02:23:55;9.30;;;7.55;;
75061;SDS011;63641;46.526;24.612;2022-10-15T02:26:31;10.30;;;7.47;;
75061;SDS011;63641;46.526;24.612;2022-10-15T02:29:02;11.13;;;7.55;;
75061;SDS011;63641;46.526;24.612;2022-10-15T02:31:32;9.50;;;7.32;;
75061;SDS011;63641;46.526;24.612;2022-10-15T02:34:03;9.02;;;6.72;;
75061;SDS011;63641;46.526;24.612;2022-10-15T02:36:33;8.57;;;7.00;;
75061;SDS011;63641;46.526;24.612;2022-10-15T02:39:01;11.25;;;7.93;;
75061;SDS011;63641;46.526;24.612;2022-10-15T02:41:29;12.30;;;8.77;;
75061;SDS011;63641;46.526;24.612;2022-10-15T02:44:01;9.85;;;7.68;;
75061;SDS011;63641;46.526;24.612;2022-10-15T02:46:29;8.70;;;7.78;;
75061;SDS011;63641;46.526;24.612;2022-10-15T02:48:56;9.25;;;7.05;;
75061;SDS011;63641;46.526;24.612;2022-10-15T02:51:22;7.60;;;6.57;;
75061;SDS011;63641;46.526;24.612;2022-10-15T02:53:52;8.43;;;6.55;;
75061;SDS011;63641;46.526;24.612;2022-10-15T02:56:18;10.27;;;8.20;;
75061;SDS011;63641;46.526;24.612;2022-10-15T02:58:45;9.90;;;7.05;;
75061;SDS011;63641;46.526;24.612;2022-10-15T03:01:12;9.07;;;6.85;;
75061;SDS011;63641;46.526;24.612;2022-10-15T03:03:39;8.55;;;7.65;;
75061;SDS011;63641;46.526;24.612;2022-10-15T03:06:05;128.10;;;15.82;;
75061;SDS011;63641;46.526;24.612;2022-10-15T03:08:33;33.22;;;9.55;;
75061;SDS011;63641;46.526;24.612;2022-10-15T03:10:59;190.90;;;15.70;;
75061;SDS011;63641;46.526;24.612;2022-10-15T03:13:27;1237.75;;;72.22;;
75061;SDS011;63641;46.526;24.612;2022-10-15T03:15:54;11.43;;;7.88;;
75061;SDS011;63641;46.526;24.612;2022-10-15T03:18:21;57.22;;;9.85;;
75061;SDS011;63641;46.526;24.612;2022-10-15T03:20:54;41.00;;;9.13;;
75061;SDS011;63641;46.526;24.612;2022-10-15T03:23:21;12.90;;;9.02;;
75061;SDS011;63641;46.526;24.612;2022-10-15T03:25:48;18.25;;;8.80;;
75061;SDS011;63641;46.526;24.612;2022-10-15T03:28:15;10.32;;;7.68;;
75061;SDS011;63641;46.526;24.612;2022-10-15T03:30:42;12.57;;;8.85;;
75061;SDS011;63641;46.526;24.612;2022-10-15T03:33:09;587.95;;;33.50;;
75061;SDS011;63641;46.526;24.612;2022-10-15T03:35:36;11.25;;;7.38;;
75061;SDS011;63641;46.526;24.612;2022-10-15T03:38:04;9.18;;;7.18;;
75061;SDS011;63641;46.526;24.612;2022-10-15T03:40:32;8.00;;;7.20;;
75061;SDS011;63641;46.526;24.612;2022-10-15T03:42:59;11.98;;;8.50;;
75061;SDS011;63641;46.526;24.612;2022-10-15T03:45:26;11.57;;;7.38;;
75061;SDS011;63641;46.526;24.612;2022-10-15T03:47:53;11.32;;;8.02;;
75061;SDS011;63641;46.526;24.612;2022-10-15T03:50:19;12.18;;;8.30;;
75061;SDS011;63641;46.526;24.612;2022-10-15T03:52:46;11.88;;;7.88;;
75061;SDS011;63641;46.526;24.612;2022-10-15T03:55:13;9.07;;;7.50;;
75061;SDS011;63641;46.526;24.612;2022-10-15T03:57:39;832.38;;;39.72;;
75061;SDS011;63641;46.526;24.612;2022-10-15T04:00:07;13.30;;;9.43;;
75061;SDS011;63641;46.526;24.612;2022-10-15T04:02:34;109.63;;;14.93;;
75061;SDS011;63641;46.526;24.612;2022-10-15T04:05:01;14.70;;;10.60;;
75061;SDS011;63641;46.526;24.612;2022-10-15T04:07:28;23.10;;;11.48;;
75061;SDS011;63641;46.526;24.612;2022-10-15T04:09:55;17.10;;;10.60;;
75061;SDS011;63641;46.526;24.612;2022-10-15T04:12:21;251.10;;;17.80;;
75061;SDS011;63641;46.526;24.612;2022-10-15T04:14:49;14.60;;;8.80;;
75061;SDS011;63641;46.526;24.612;2022-10-15T04:17:15;13.48;;;9.43;;
75061;SDS011;63641;46.526;24.612;2022-10-15T04:19:43;17.58;;;10.43;;
75061;SDS011;63641;46.526;24.612;2022-10-15T04:22:09;19.13;;;10.68;;
75061;SDS011;63641;46.526;24.612;2022-10-15T04:24:36;22.65;;;10.10;;
75061;SDS011;63641;46.526;24.612;2022-10-15T04:27:03;14.07;;;10.18;;
75061;SDS011;63641;46.526;24.612;2022-10-15T04:29:30;17.77;;;11.70;;
75061;SDS011;63641;46.526;24.612;2022-10-15T04:31:56;14.45;;;11.13;;
75061;SDS011;63641;46.526;24.612;2022-10-15T04:34:23;26.92;;;11.68;;
75061;SDS011;63641;46.526;24.612;2022-10-15T04:36:50;132.20;;;16.75;;
75061;SDS011;63641;46.526;24.612;2022-10-15T04:39:17;15.88;;;10.82;;
75061;SDS011;63641;46.526;24.612;2022-10-15T04:41:43;24.27;;;10.63;;
75061;SDS011;63641;46.526;24.612;2022-10-15T04:44:10;130.45;;;14.95;;
75061;SDS011;63641;46.526;24.612;2022-10-15T04:46:37;13.63;;;10.45;;
75061;SDS011;63641;46.526;24.612;2022-10-15T04:49:04;17.90;;;12.13;;
75061;SDS011;63641;46.526;24.612;2022-10-15T04:51:31;30.90;;;11.40;;
75061;SDS011;63641;46.526;24.612;2022-10-15T04:53:57;19.45;;;11.38;;
75061;SDS011;63641;46.526;24.612;2022-10-15T04:56:24;14.80;;;10.05;;
75061;SDS011;63641;46.526;24.612;2022-10-15T04:58:51;14.50;;;9.60;;
75061;SDS011;63641;46.526;24.612;2022-10-15T05:01:18;15.70;;;11.20;;
75061;SDS011;63641;46.526;24.612;2022-10-15T05:03:46;18.30;;;13.45;;
75061;SDS011;63641;46.526;24.612;2022-10-15T05:06:18;18.25;;;13.88;;
75061;SDS011;63641;46.526;24.612;2022-10-15T05:08:46;19.55;;;13.00;;
75061;SDS011;63641;46.526;24.612;2022-10-15T05:11:15;16.55;;;11.48;;
75061;SDS011;63641;46.526;24.612;2022-10-15T05:13:49;14.40;;;9.88;;
75061;SDS011;63641;46.526;24.612;2022-10-15T05:18:45;14.90;;;10.57;;
75061;SDS011;63641;46.526;24.612;2022-10-15T05:21:14;12.07;;;10.00;;
75061;SDS011;63641;46.526;24.612;2022-10-15T05:23:41;12.18;;;9.90;;
75061;SDS011;63641;46.526;24.612;2022-10-15T05:26:13;10.68;;;8.90;;
75061;SDS011;63641;46.526;24.612;2022-10-15T05:28:46;20.30;;;16.40;;
75061;SDS011;63641;46.526;24.612;2022-10-15T05:31:14;23.17;;;17.27;;
75061;SDS011;63641;46.526;24.612;2022-10-15T05:33:46;16.95;;;13.15;;
75061;SDS011;63641;46.526;24.612;2022-10-15T05:36:17;14.25;;;12.70;;
75061;SDS011;63641;46.526;24.612;2022-10-15T05:38:47;14.20;;;10.68;;
75061;SDS011;63641;46.526;24.612;2022-10-15T05:41:24;12.77;;;11.02;;
75061;SDS011;63641;46.526;24.612;2022-10-15T05:43:52;18.98;;;15.90;;
75061;SDS011;63641;46.526;24.612;2022-10-15T05:46:20;34.88;;;24.92;;
75061;SDS011;63641;46.526;24.612;2022-10-15T05:48:50;19.70;;;15.70;;
75061;SDS011;63641;46.526;24.612;2022-10-15T05:51:19;17.48;;;12.85;;
75061;SDS011;63641;46.526;24.612;2022-10-15T05:53:46;20.80;;;15.48;;
75061;SDS011;63641;46.526;24.612;2022-10-15T05:56:13;26.42;;;20.40;;
75061;SDS011;63641;46.526;24.612;2022-10-15T05:58:40;18.25;;;15.20;;
75061;SDS011;63641;46.526;24.612;2022-10-15T06:01:08;18.58;;;14.65;;
75061;SDS011;63641;46.526;24.612;2022-10-15T06:03:36;29.17;;;22.80;;
75061;SDS011;63641;46.526;24.612;2022-10-15T06:06:04;33.58;;;25.00;;
75061;SDS011;63641;46.526;24.612;2022-10-15T06:11:05;17.10;;;13.20;;
75061;SDS011;63641;46.526;24.612;2022-10-15T06:13:36;18.00;;;14.70;;
75061;SDS011;63641;46.526;24.612;2022-10-15T06:16:04;19.23;;;15.23;;
75061;SDS011;63641;46.526;24.612;2022-10-15T06:18:31;21.17;;;14.20;;
75061;SDS011;63641;46.526;24.612;2022-10-15T06:20:58;17.98;;;14.07;;
75061;SDS011;63641;46.526;24.612;2022-10-15T06:23:25;18.95;;;13.40;;
75061;SDS011;63641;46.526;24.612;2022-10-15T06:25:51;19.67;;;13.65;;
75061;SDS011;63641;46.526;24.612;2022-10-15T06:28:18;19.95;;;13.27;;
75061;SDS011;63641;46.526;24.612;2022-10-15T06:30:45;18.00;;;13.68;;
75061;SDS011;63641;46.526;24.612;2022-10-15T06:33:12;25.55;;;16.42;;
75061;SDS011;63641;46.526;24.612;2022-10-15T06:35:41;21.58;;;14.82;;
75061;SDS011;63641;46.526;24.612;2022-10-15T06:38:08;26.42;;;21.48;;
75061;SDS011;63641;46.526;24.612;2022-10-15T06:40:35;26.52;;;20.05;;
75061;SDS011;63641;46.526;24.612;2022-10-15T06:43:06;32.40;;;23.58;;
75061;SDS011;63641;46.526;24.612;2022-10-15T06:45:35;30.58;;;22.33;;
75061;SDS011;63641;46.526;24.612;2022-10-15T06:48:04;35.05;;;25.73;;
75061;SDS011;63641;46.526;24.612;2022-10-15T06:50:31;30.25;;;22.88;;
75061;SDS011;63641;46.526;24.612;2022-10-15T06:52:58;31.33;;;24.65;;
75061;SDS011;63641;46.526;24.612;2022-10-15T06:55:25;30.42;;;24.25;;
75061;SDS011;63641;46.526;24.612;2022-10-15T06:57:54;29.70;;;23.73;;
75061;SDS011;63641;46.526;24.612;2022-10-15T07:00:22;27.52;;;20.58;;
75061;SDS011;63641;46.526;24.612;2022-10-15T07:02:49;28.10;;;19.50;;
75061;SDS011;63641;46.526;24.612;2022-10-15T07:05:17;24.70;;;19.00;;
75061;SDS011;63641;46.526;24.612;2022-10-15T07:07:51;27.10;;;18.60;;
75061;SDS011;63641;46.526;24.612;2022-10-15T07:12:45;27.23;;;17.40;;
75061;SDS011;63641;46.526;24.612;2022-10-15T07:15:13;25.13;;;18.02;;
75061;SDS011;63641;46.526;24.612;2022-10-15T07:17:45;23.17;;;16.25;;
75061;SDS011;63641;46.526;24.612;2022-10-15T07:20:13;22.63;;;15.07;;
75061;SDS011;63641;46.526;24.612;2022-10-15T07:22:45;20.90;;;15.20;;
75061;SDS011;63641;46.526;24.612;2022-10-15T07:25:12;21.27;;;14.10;;
75061;SDS011;63641;46.526;24.612;2022-10-15T07:27:39;16.65;;;13.27;;
75061;SDS011;63641;46.526;24.612;2022-10-15T07:30:06;18.50;;;13.10;;
75061;SDS011;63641;46.526;24.612;2022-10-15T07:32:34;17.83;;;13.00;;
75061;SDS011;63641;46.526;24.612;2022-10-15T07:35:01;17.90;;;11.90;;
75061;SDS011;63641;46.526;24.612;2022-10-15T07:37:28;15.23;;;11.82;;
75061;SDS011;63641;46.526;24.612;2022-10-15T07:39:55;15.63;;;12.98;;
75061;SDS011;63641;46.526;24.612;2022-10-15T07:44:57;18.88;;;12.88;;
75061;SDS011;63641;46.526;24.612;2022-10-15T07:47:24;16.75;;;11.95;;
75061;SDS011;63641;46.526;24.612;2022-10-15T07:49:51;15.25;;;11.70;;
75061;SDS011;63641;46.526;24.612;2022-10-15T07:52:18;16.67;;;11.30;;
75061;SDS011;63641;46.526;24.612;2022-10-15T07:54:45;15.27;;;11.40;;
75061;SDS011;63641;46.526;24.612;2022-10-15T07:57:11;11.88;;;10.63;;
75061;SDS011;63641;46.526;24.612;2022-10-15T07:59:38;12.85;;;10.75;;
75061;SDS011;63641;46.526;24.612;2022-10-15T08:02:05;12.25;;;9.23;;
75061;SDS011;63641;46.526;24.612;2022-10-15T08:04:32;10.75;;;9.65;;
75061;SDS011;63641;46.526;24.612;2022-10-15T08:07:00;12.95;;;9.93;;
75061;SDS011;63641;46.526;24.612;2022-10-15T08:09:29;10.10;;;8.50;;
75061;SDS011;63641;46.526;24.612;2022-10-15T08:11:56;9.75;;;8.75;;
75061;SDS011;63641;46.526;24.612;2022-10-15T08:14:26;10.30;;;8.80;;
75061;SDS011;63641;46.526;24.612;2022-10-15T08:16:53;12.52;;;8.63;;
75061;SDS011;63641;46.526;24.612;2022-10-15T08:19:19;12.05;;;8.60;;
75061;SDS011;63641;46.526;24.612;2022-10-15T08:21:46;10.63;;;7.50;;
75061;SDS011;63641;46.526;24.612;2022-10-15T08:24:13;49.78;;;11.13;;
75061;SDS011;63641;46.526;24.612;2022-10-15T08:26:39;11.55;;;7.40;;
75061;SDS011;63641;46.526;24.612;2022-10-15T08:29:06;9.93;;;7.80;;
75061;SDS011;63641;46.526;24.612;2022-10-15T08:31:33;10.80;;;8.13;;
75061;SDS011;63641;46.526;24.612;2022-10-15T08:34:00;10.02;;;7.32;;
75061;SDS011;63641;46.526;24.612;2022-10-15T08:36:27;10.48;;;7.50;;
75061;SDS011;63641;46.526;24.612;2022-10-15T08:38:54;8.25;;;7.40;;
75061;SDS011;63641;46.526;24.612;2022-10-15T08:49:44;14.40;;;8.25;;
75061;SDS011;63641;46.526;24.612;2022-10-15T08:52:17;8.73;;;7.17;;
75061;SDS011;63641;46.526;24.612;2022-10-15T08:54:50;12.40;;;7.82;;
75061;SDS011;63641;46.526;24.612;2022-10-15T08:58:05;9.70;;;7.63;;
75061;SDS011;63641;46.526;24.612;2022-10-15T09:09:33;14.23;;;10.20;;
75061;SDS011;63641;46.526;24.612;2022-10-15T09:15:03;11.65;;;7.35;;
75061;SDS011;63641;46.526;24.612;2022-10-15T09:17:35;9.35;;;7.10;;
75061;SDS011;63641;46.526;24.612;2022-10-15T09:20:04;10.23;;;7.53;;
75061;SDS011;63641;46.526;24.612;2022-10-15T09:22:33;12.38;;;7.13;;
75061;SDS011;63641;46.526;24.612;2022-10-15T09:25:13;10.57;;;7.47;;
75061;SDS011;63641;46.526;24.612;2022-10-15T09:27:40;8.65;;;7.53;;
75061;SDS011;63641;46.526;24.612;2022-10-15T09:32:44;8.98;;;6.88;;
75061;SDS011;63641;46.526;24.612;2022-10-15T09:35:32;11.18;;;8.30;;
75061;SDS011;63641;46.526;24.612;2022-10-15T09:38:35;8.30;;;6.43;;
75061;SDS011;63641;46.526;24.612;2022-10-15T09:44:09;9.77;;;6.88;;
75061;SDS011;63641;46.526;24.612;2022-10-15T09:46:47;9.48;;;6.75;;
75061;SDS011;63641;46.526;24.612;2022-10-15T09:49:16;11.18;;;8.05;;
75061;SDS011;63641;46.526;24.612;2022-10-15T09:52:05;9.90;;;6.85;;
75061;SDS011;63641;46.526;24.612;2022-10-15T09:57:15;8.65;;;6.97;;
75061;SDS011;63641;46.526;24.612;2022-10-15T10:02:20;11.80;;;6.50;;
75061;SDS011;63641;46.526;24.612;2022-10-15T10:04:53;14.25;;;7.18;;
75061;SDS011;63641;46.526;24.612;2022-10-15T10:07:30;9.43;;;6.10;;
75061;SDS011;63641;46.526;24.612;2022-10-15T10:10:06;9.57;;;6.28;;
75061;SDS011;63641;46.526;24.612;2022-10-15T10:12:54;7.55;;;5.90;;
75061;SDS011;63641;46.526;24.612;2022-10-15T10:15:35;7.05;;;5.88;;
75061;SDS011;63641;46.526;24.612;2022-10-15T10:18:27;7.82;;;6.97;;
75061;SDS011;63641;46.526;24.612;2022-10-15T10:20:55;8.05;;;6.13;;
75061;SDS011;63641;46.526;24.612;2022-10-15T10:23:34;10.00;;;5.63;;
75061;SDS011;63641;46.526;24.612;2022-10-15T10:26:03;7.13;;;6.10;;
75061;SDS011;63641;46.526;24.612;2022-10-15T10:28:51;7.30;;;6.35;;
75061;SDS011;63641;46.526;24.612;2022-10-15T10:31:32;10.35;;;6.28;;
75061;SDS011;63641;46.526;24.612;2022-10-15T10:34:09;9.38;;;6.40;;
75061;SDS011;63641;46.526;24.612;2022-10-15T10:36:41;10.43;;;6.38;;
75061;SDS011;63641;46.526;24.612;2022-10-15T10:44:20;9.43;;;6.55;;
75061;SDS011;63641;46.526;24.612;2022-10-15T10:47:14;9.32;;;6.45;;
75061;SDS011;63641;46.526;24.612;2022-10-15T10:49:44;10.80;;;6.35;;
75061;SDS011;63641;46.526;24.612;2022-10-15T10:52:23;7.38;;;6.60;;
75061;SDS011;63641;46.526;24.612;2022-10-15T10:58:47;9.88;;;6.47;;
75061;SDS011;63641;46.526;24.612;2022-10-15T11:01:20;13.60;;;7.97;;
75061;SDS011;63641;46.526;24.612;2022-10-15T11:03:49;10.80;;;6.15;;
75061;SDS011;63641;46.526;24.612;2022-10-15T11:06:50;7.68;;;6.32;;
75061;SDS011;63641;46.526;24.612;2022-10-15T16:20:03;25.05;;;22.80;;
75061;SDS011;63641;46.526;24.612;2022-10-15T16:22:30;19.80;;;18.30;;
75061;SDS011;63641;46.526;24.612;2022-10-15T16:24:57;18.40;;;16.80;;
75061;SDS011;63641;46.526;24.612;2022-10-15T16:27:24;17.45;;;15.32;;
75061;SDS011;63641;46.526;24.612;2022-10-15T16:29:52;18.85;;;17.05;;
75061;SDS011;63641;46.526;24.612;2022-10-15T16:32:19;28.35;;;23.35;;
75061;SDS011;63641;46.526;24.612;2022-10-15T16:34:46;19.90;;;17.90;;
75061;SDS011;63641;46.526;24.612;2022-10-15T16:37:12;41.28;;;30.05;;
75061;SDS011;63641;46.526;24.612;2022-10-15T16:39:39;26.52;;;23.42;;
75061;SDS011;63641;46.526;24.612;2022-10-15T16:42:06;27.48;;;23.33;;
75061;SDS011;63641;46.526;24.612;2022-10-15T16:44:33;28.73;;;20.15;;
75061;SDS011;63641;46.526;24.612;2022-10-15T16:47:00;27.75;;;21.92;;
75061;SDS011;63641;46.526;24.612;2022-10-15T16:49:27;33.30;;;23.83;;
75061;SDS011;63641;46.526;24.612;2022-10-15T16:51:54;29.63;;;20.80;;
75061;SDS011;63641;46.526;24.612;2022-10-15T16:54:21;31.15;;;22.48;;
75061;SDS011;63641;46.526;24.612;2022-10-15T16:56:47;33.75;;;23.58;;
75061;SDS011;63641;46.526;24.612;2022-10-15T16:59:18;44.55;;;30.17;;
75061;SDS011;63641;46.526;24.612;2022-10-15T17:01:45;39.00;;;25.92;;
75061;SDS011;63641;46.526;24.612;2022-10-15T17:04:12;24.33;;;20.02;;
75061;SDS011;63641;46.526;24.612;2022-10-15T17:06:39;21.95;;;16.27;;
75061;SDS011;63641;46.526;24.612;2022-10-15T17:09:05;15.57;;;13.98;;
75061;SDS011;63641;46.526;24.612;2022-10-15T17:11:34;19.08;;;15.65;;
75061;SDS011;63641;46.526;24.612;2022-10-15T17:14:06;17.88;;;15.88;;
75061;SDS011;63641;46.526;24.612;2022-10-15T17:19:06;17.70;;;16.00;;
75061;SDS011;63641;46.526;24.612;2022-10-15T17:21:34;23.30;;;16.80;;
75061;SDS011;63641;46.526;24.612;2022-10-15T17:24:02;21.10;;;18.63;;
75061;SDS011;63641;46.526;24.612;2022-10-15T17:26:32;19.60;;;16.52;;
75061;SDS011;63641;46.526;24.612;2022-10-15T17:29:08;19.17;;;17.27;;
75061;SDS011;63641;46.526;24.612;2022-10-15T17:31:36;18.40;;;16.48;;
75061;SDS011;63641;46.526;24.612;2022-10-15T17:34:05;20.13;;;17.05;;
75061;SDS011;63641;46.526;24.612;2022-10-15T17:36:37;17.33;;;15.48;;
75061;SDS011;63641;46.526;24.612;2022-10-15T17:39:10;20.88;;;18.63;;
75061;SDS011;63641;46.526;24.612;2022-10-15T17:41:48;23.75;;;20.25;;
75061;SDS011;63641;46.526;24.612;2022-10-15T17:44:16;21.00;;;18.92;;
75061;SDS011;63641;46.526;24.612;2022-10-15T17:46:43;20.00;;;18.10;;
75061;SDS011;63641;46.526;24.612;2022-10-15T17:49:09;20.33;;;17.08;;
75061;SDS011;63641;46.526;24.612;2022-10-15T17:51:36;16.95;;;15.30;;
75061;SDS011;63641;46.526;24.612;2022-10-15T17:54:03;20.75;;;18.58;;
75061;SDS011;63641;46.526;24.612;2022-10-15T17:56:31;20.25;;;18.30;;
75061;SDS011;63641;46.526;24.612;2022-10-15T17:59:00;19.80;;;17.90;;
75061;SDS011;63641;46.526;24.612;2022-10-15T18:01:30;17.50;;;15.90;;
75061;SDS011;63641;46.526;24.612;2022-10-15T18:04:19;19.20;;;17.50;;
75061;SDS011;63641;46.526;24.612;2022-10-15T18:06:45;17.30;;;15.50;;
75061;SDS011;63641;46.526;24.612;2022-10-15T18:09:12;17.88;;;16.08;;
75061;SDS011;63641;46.526;24.612;2022-10-15T18:11:39;19.73;;;17.75;;
75061;SDS011;63641;46.526;24.612;2022-10-15T18:14:06;20.50;;;18.33;;
75061;SDS011;63641;46.526;24.612;2022-10-15T18:16:33;21.25;;;19.20;;
75061;SDS011;63641;46.526;24.612;2022-10-15T18:18:59;17.95;;;15.13;;
75061;SDS011;63641;46.526;24.612;2022-10-15T18:21:26;29.38;;;26.48;;
75061;SDS011;63641;46.526;24.612;2022-10-15T18:23:53;30.33;;;27.15;;
75061;SDS011;63641;46.526;24.612;2022-10-15T18:26:23;19.27;;;17.05;;
75061;SDS011;63641;46.526;24.612;2022-10-15T18:28:50;24.23;;;21.67;;
75061;SDS011;63641;46.526;24.612;2022-10-15T18:31:19;43.72;;;36.25;;
75061;SDS011;63641;46.526;24.612;2022-10-15T18:33:48;26.73;;;23.73;;
75061;SDS011;63641;46.526;24.612;2022-10-15T18:36:21;26.13;;;23.52;;
75061;SDS011;63641;46.526;24.612;2022-10-15T18:38:49;27.65;;;24.65;;
75061;SDS011;63641;46.526;24.612;2022-10-15T18:44:03;32.80;;;29.35;;
75061;SDS011;63641;46.526;24.612;2022-10-15T18:46:32;28.60;;;21.60;;
75061;SDS011;63641;46.526;24.612;2022-10-15T18:49:00;23.63;;;18.55;;
75061;SDS011;63641;46.526;24.612;2022-10-15T18:51:27;20.30;;;17.42;;
75061;SDS011;63641;46.526;24.612;2022-10-15T18:53:54;21.23;;;19.00;;
75061;SDS011;63641;46.526;24.612;2022-10-15T18:56:21;24.48;;;22.08;;
75061;SDS011;63641;46.526;24.612;2022-10-15T18:58:48;22.48;;;20.15;;
75061;SDS011;63641;46.526;24.612;2022-10-15T19:03:56;22.80;;;20.58;;
75061;SDS011;63641;46.526;24.612;2022-10-15T19:08:29;22.10;;;19.85;;
75061;SDS011;63641;46.526;24.612;2022-10-15T19:11:04;22.35;;;19.23;;
75061;SDS011;63641;46.526;24.612;2022-10-15T19:13:32;21.98;;;19.67;;
75061;SDS011;63641;46.526;24.612;2022-10-15T19:16:00;18.80;;;16.65;;
75061;SDS011;63641;46.526;24.612;2022-10-15T19:18:28;20.20;;;18.17;;
75061;SDS011;63641;46.526;24.612;2022-10-15T19:20:55;18.80;;;17.02;;
75061;SDS011;63641;46.526;24.612;2022-10-15T19:23:22;22.05;;;19.27;;
75061;SDS011;63641;46.526;24.612;2022-10-15T19:25:52;20.20;;;18.23;;
75061;SDS011;63641;46.526;24.612;2022-10-15T19:28:19;25.20;;;18.55;;
75061;SDS011;63641;46.526;24.612;2022-10-15T19:30:52;19.20;;;17.30;;
75061;SDS011;63641;46.526;24.612;2022-10-15T19:33:24;22.20;;;17.35;;
75061;SDS011;63641;46.526;24.612;2022-10-15T19:35:52;16.55;;;14.77;;
75061;SDS011;63641;46.526;24.612;2022-10-15T19:38:19;23.00;;;20.85;;
75061;SDS011;63641;46.526;24.612;2022-10-15T19:40:46;23.80;;;21.50;;
75061;SDS011;63641;46.526;24.612;2022-10-15T19:43:15;22.38;;;20.15;;
75061;SDS011;63641;46.526;24.612;2022-10-15T19:45:44;22.50;;;20.13;;
75061;SDS011;63641;46.526;24.612;2022-10-15T19:48:12;21.55;;;19.73;;
75061;SDS011;63641;46.526;24.612;2022-10-15T19:50:41;19.98;;;17.83;;
75061;SDS011;63641;46.526;24.612;2022-10-15T19:53:14;21.45;;;19.45;;
75061;SDS011;63641;46.526;24.612;2022-10-15T19:55:43;22.42;;;19.75;;
75061;SDS011;63641;46.526;24.612;2022-10-15T19:58:19;18.58;;;16.92;;
75061;SDS011;63641;46.526;24.612;2022-10-15T20:00:50;20.00;;;18.15;;
75061;SDS011;63641;46.526;24.612;2022-10-15T20:03:18;20.73;;;18.92;;
75061;SDS011;63641;46.526;24.612;2022-10-15T20:05:45;22.02;;;20.13;;
75061;SDS011;63641;46.526;24.612;2022-10-15T20:08:13;20.40;;;18.55;;
75061;SDS011;63641;46.526;24.612;2022-10-15T20:10:41;19.52;;;17.48;;
75061;SDS011;63641;46.526;24.612;2022-10-15T20:13:09;22.08;;;20.08;;
75061;SDS011;63641;46.526;24.612;2022-10-15T20:15:40;19.15;;;17.13;;
75061;SDS011;63641;46.526;24.612;2022-10-15T20:18:08;19.27;;;17.52;;
75061;SDS011;63641;46.526;24.612;2022-10-15T20:20:35;18.90;;;16.90;;
75061;SDS011;63641;46.526;24.612;2022-10-15T20:23:03;18.38;;;16.67;;
75061;SDS011;63641;46.526;24.612;2022-10-15T20:25:30;21.52;;;19.40;;
75061;SDS011;63641;46.526;24.612;2022-10-15T20:27:57;19.33;;;17.55;;
75061;SDS011;63641;46.526;24.612;2022-10-15T20:30:24;18.27;;;16.73;;
75061;SDS011;63641;46.526;24.612;2022-10-15T20:32:51;23.00;;;20.58;;
75061;SDS011;63641;46.526;24.612;2022-10-15T20:35:17;29.58;;;26.60;;
75061;SDS011;63641;46.526;24.612;2022-10-15T20:37:45;42.97;;;37.30;;
75061;SDS011;63641;46.526;24.612;2022-10-15T20:40:12;30.02;;;25.85;;
75061;SDS011;63641;46.526;24.612;2022-10-15T20:42:39;24.52;;;22.13;;
75061;SDS011;63641;46.526;24.612;2022-10-15T20:45:07;22.15;;;20.15;;
75061;SDS011;63641;46.526;24.612;2022-10-15T20:47:41;23.50;;;19.92;;
75061;SDS011;63641;46.526;24.612;2022-10-15T20:50:11;27.33;;;24.30;;
75061;SDS011;63641;46.526;24.612;2022-10-15T20:52:41;26.25;;;23.60;;
75061;SDS011;63641;46.526;24.612;2022-10-15T20:55:08;26.35;;;22.67;;
75061;SDS011;63641;46.526;24.612;2022-10-15T20:57:36;25.27;;;20.42;;
75061;SDS011;63641;46.526;24.612;2022-10-15T21:00:04;22.35;;;19.10;;
75061;SDS011;63641;46.526;24.612;2022-10-15T21:02:32;21.75;;;19.45;;
75061;SDS011;63641;46.526;24.612;2022-10-15T21:04:59;18.02;;;16.23;;
75061;SDS011;63641;46.526;24.612;2022-10-15T21:07:26;19.02;;;17.13;;
75061;SDS011;63641;46.526;24.612;2022-10-15T21:09:52;20.35;;;18.25;;
75061;SDS011;63641;46.526;24.612;2022-10-15T21:12:19;20.77;;;18.65;;
75061;SDS011;63641;46.526;24.612;2022-10-15T21:14:46;20.23;;;18.27;;
75061;SDS011;63641;46.526;24.612;2022-10-15T21:17:13;22.30;;;19.20;;